Time;durP1;ratioP1;P1;durP2;ratioP2;P2;SDS_P1;SDS_P2;PMS_P1;PMS_P2;Temp;Humidity;BMP_temperature;BMP_pressure;BME280_temperature;BME280_humidity;BME280_pressure;Samples;Min_cycle;Max_cycle;Signal;HPM_P1;HPM_P2
2022/07/14 00:00:11;;;;;;;13.18;3.33;;;;;;;18.65;nan;95710.88;5060030;28;20032;-85
2022/07/14 00:02:36;;;;;;;6.03;3.10;;;;;;;18.89;nan;95748.09;5053715;28;20055;-85
2022/07/14 00:05:02;;;;;;;7.43;3.33;;;;;;;18.21;nan;95639.28;5049306;28;20534;-85
2022/07/14 00:07:28;;;;;;;10.93;2.97;;;;;;;17.89;nan;95602.03;5050159;28;20127;-85
2022/07/14 00:09:53;;;;;;;7.30;2.90;;;;;;;18.73;nan;95733.50;5069506;28;20114;-85
2022/07/14 00:12:19;;;;;;;5.55;2.78;;;;;;;16.65;nan;95409.00;5046609;28;20037;-85
2022/07/14 00:14:44;;;;;;;8.23;3.17;;;;;;;18.51;nan;95713.66;5054335;28;20040;-85
2022/07/14 00:17:10;;;;;;;6.50;2.95;;;;;;;18.72;nan;95756.88;5043097;28;20028;-85
2022/07/14 00:19:35;;;;;;;10.10;3.22;;;;;;;17.24;nan;95528.31;5056450;28;20113;-85
2022/07/14 00:22:01;;;;;;;9.48;3.38;;;;;;;18.05;nan;95667.63;5060009;28;20037;-85
2022/07/14 00:24:26;;;;;;;6.38;2.78;;;;;;;18.61;nan;95760.16;5058338;28;20422;-85
2022/07/14 00:26:52;;;;;;;9.55;3.60;;;;;;;17.22;nan;95548.50;5058618;28;20036;-85
2022/07/14 00:29:17;;;;;;;15.13;3.08;;;;;;;17.45;nan;95606.38;5054604;28;20064;-85
2022/07/14 00:31:43;;;;;;;13.55;2.97;;;;;;;18.12;nan;95735.09;5046894;28;20036;-85
2022/07/14 00:34:09;;;;;;;11.55;2.95;;;;;;;18.13;nan;95724.06;5062618;28;20067;-86
2022/07/14 00:36:34;;;;;;;12.25;3.47;;;;;;;17.94;nan;95693.94;5056107;28;20033;-85
2022/07/14 00:38:59;;;;;;;8.65;2.97;;;;;;;17.80;nan;95662.91;5051209;28;20483;-85
2022/07/14 00:41:25;;;;;;;9.45;3.50;;;;;;;18.12;nan;95745.81;5080999;28;20036;-85
2022/07/14 00:43:50;;;;;;;11.32;3.97;;;;;;;17.79;nan;95688.16;5080932;28;20048;-85
2022/07/14 00:46:16;;;;;;;8.65;3.03;;;;;;;17.82;nan;95671.47;5059070;28;20029;-85
2022/07/14 00:48:42;;;;;;;6.95;3.13;;;;;;;17.65;nan;95650.69;5074698;28;20096;-85
2022/07/14 00:51:07;;;;;;;9.02;3.45;;;;;;;17.69;nan;95660.50;5047372;28;20051;-85
2022/07/14 00:53:33;;;;;;;9.75;3.45;;;;;;;17.73;nan;95677.56;5058357;28;20120;-85
2022/07/14 00:55:58;;;;;;;10.27;3.08;;;;;;;18.12;nan;95751.19;5080725;28;20474;-85
2022/07/14 00:58:24;;;;;;;16.55;3.50;;;;;;;17.85;nan;95717.22;5062192;28;20582;-85
2022/07/14 01:00:49;;;;;;;7.97;3.60;;;;;;;16.66;nan;95539.09;5042405;28;20055;-85
2022/07/14 01:03:15;;;;;;;4.72;3.17;;;;;;;18.00;nan;95746.38;5042737;28;20051;-85
2022/07/14 01:05:41;;;;;;;7.28;3.15;;;;;;;17.88;nan;95721.19;5047614;28;20055;-85
2022/07/14 01:08:06;;;;;;;3.42;2.72;;;;;;;18.06;nan;95742.47;5059432;28;20128;-85
2022/07/14 01:10:32;;;;;;;6.07;3.00;;;;;;;18.11;nan;95742.34;5065171;28;20097;-85
2022/07/14 01:13:00;;;;;;;13.10;3.38;;;;;;;17.86;nan;95704.59;5080273;28;20040;-84
2022/07/14 01:15:26;;;;;;;7.10;2.60;;;;;;;17.42;nan;95649.88;5053028;28;20040;-85
2022/07/14 01:17:51;;;;;;;9.98;3.28;;;;;;;17.48;nan;95637.13;5050816;28;20496;-85
2022/07/14 01:20:18;;;;;;;5.00;2.90;;;;;;;17.79;nan;95688.16;5079202;28;20327;-85
2022/07/14 01:22:46;;;;;;;5.60;3.35;;;;;;;18.10;nan;95738.06;5060871;28;20047;-85
2022/07/14 01:25:13;;;;;;;8.05;3.58;;;;;;;17.24;nan;95607.97;5049134;28;20117;-85
2022/07/14 01:27:38;;;;;;;9.32;3.55;;;;;;;17.28;nan;95615.09;5054624;28;20036;-86
2022/07/14 01:30:05;;;;;;;12.27;3.67;;;;;;;17.69;nan;95667.75;5047860;28;20505;-86
2022/07/14 01:32:31;;;;;;;8.43;3.05;;;;;;;17.83;nan;95721.34;5076129;28;20200;-86
2022/07/14 01:34:56;;;;;;;8.00;3.30;;;;;;;16.49;nan;95485.38;5079780;28;20122;-86
2022/07/14 01:37:21;;;;;;;5.75;2.70;;;;;;;17.14;nan;95598.28;5080352;28;20047;-86
2022/07/14 01:39:47;;;;;;;8.45;3.15;;;;;;;17.73;nan;95701.69;5058263;28;20060;-86
2022/07/14 01:42:12;;;;;;;10.50;3.10;;;;;;;17.40;nan;95644.00;5061082;28;20043;-86
2022/07/14 01:44:38;;;;;;;5.20;2.92;;;;;;;16.85;nan;95614.75;5060638;28;20569;-86
2022/07/14 01:47:04;;;;;;;4.65;3.00;;;;;;;17.20;nan;95649.84;5044690;28;20090;-86
2022/07/14 01:49:29;;;;;;;7.32;2.83;;;;;;;16.76;nan;95603.16;5059829;28;20108;-86
2022/07/14 01:51:55;;;;;;;5.82;3.05;;;;;;;17.40;nan;95680.75;5061500;28;20478;-86
2022/07/14 01:54:20;;;;;;;9.57;2.92;;;;;;;16.70;nan;95635.72;5056937;28;20135;-86
2022/07/14 01:56:45;;;;;;;6.45;2.92;;;;;;;17.20;nan;95684.69;5057459;28;20055;-86
2022/07/14 01:59:11;;;;;;;5.47;2.63;;;;;;;16.78;nan;95608.22;5067530;28;20048;-86
2022/07/14 02:01:40;;;;;;;4.80;2.55;;;;;;;16.83;nan;95608.09;5080473;28;20138;-86
2022/07/14 02:04:10;;;;;;;11.75;3.17;;;;;;;17.47;nan;95726.72;5075102;28;20716;-86
2022/07/14 02:06:37;;;;;;;11.88;3.00;;;;;;;15.72;nan;95459.47;5064532;28;20130;-85
2022/07/14 02:09:03;;;;;;;9.75;2.58;;;;;;;17.19;nan;95685.78;5062142;28;20188;-86
2022/07/14 02:14:13;;;;;;;9.18;2.75;;;;;;;17.12;nan;95704.19;5061697;28;20043;-86
2022/07/14 02:16:38;;;;;;;10.25;2.83;;;;;;;17.00;nan;95723.47;5059851;28;20937;-86
2022/07/14 02:19:05;;;;;;;8.27;2.85;;;;;;;17.21;nan;95731.84;5079352;28;20113;-86
2022/07/14 02:21:30;;;;;;;5.63;2.88;;;;;;;17.11;nan;95732.06;5078535;28;20162;-86
2022/07/14 02:23:59;;;;;;;15.43;3.85;;;;;;;16.86;nan;95690.56;5061005;28;20028;-86
2022/07/14 02:26:24;;;;;;;9.02;3.38;;;;;;;17.21;nan;95737.22;5073165;28;20205;-86
2022/07/14 02:28:50;;;;;;;7.50;3.10;;;;;;;16.44;nan;95614.00;5067680;28;20525;-87
2022/07/14 02:31:16;;;;;;;7.78;3.03;;;;;;;16.85;nan;95683.59;5069989;28;20044;-86
2022/07/14 02:33:41;;;;;;;5.50;2.83;;;;;;;16.35;nan;95663.97;5049963;28;20501;-86
2022/07/14 02:36:07;;;;;;;6.20;3.00;;;;;;;14.59;nan;95394.25;5049005;28;20045;-86
2022/07/14 02:38:33;;;;;;;13.02;4.03;;;;;;;16.14;nan;95602.81;5058820;28;20036;-86
2022/07/14 02:40:58;;;;;;;11.25;3.20;;;;;;;15.67;nan;95565.75;5060315;28;20043;-86
2022/07/14 02:43:26;;;;;;;11.38;3.45;;;;;;;16.35;nan;95670.13;5063284;28;20491;-86
2022/07/14 02:45:51;;;;;;;11.93;3.72;;;;;;;15.57;nan;95536.53;5059230;28;20443;-86
2022/07/14 02:48:17;;;;;;;10.32;3.55;;;;;;;16.81;nan;95746.88;5056884;28;20071;-86
2022/07/14 02:50:42;;;;;;;9.20;3.03;;;;;;;16.52;nan;95704.31;5060373;28;20043;-86
2022/07/14 02:53:08;;;;;;;7.35;3.53;;;;;;;16.52;nan;95694.41;5058279;28;20125;-86
2022/07/14 02:55:37;;;;;;;6.15;3.17;;;;;;;16.44;nan;95679.03;5040130;28;20037;-86
2022/07/14 02:58:06;;;;;;;6.40;3.47;;;;;;;15.06;nan;95460.72;5042726;28;20571;-86
2022/07/14 03:00:33;;;;;;;10.00;3.05;;;;;;;16.52;nan;95689.06;5072181;28;20040;-86
2022/07/14 03:03:00;;;;;;;13.82;4.15;;;;;;;16.67;nan;95708.63;5056515;28;20041;-86
2022/07/14 03:05:27;;;;;;;10.52;3.60;;;;;;;16.38;nan;95652.69;5058688;28;20033;-86
2022/07/14 03:07:52;;;;;;;11.70;3.85;;;;;;;16.77;nan;95711.88;5069927;28;20108;-86
2022/07/14 03:10:18;;;;;;;14.02;3.65;;;;;;;16.80;nan;95718.50;5069225;28;20036;-87
2022/07/14 03:12:43;;;;;;;6.47;3.60;;;;;;;16.76;nan;95706.81;5056616;28;20110;-86
2022/07/14 03:15:09;;;;;;;10.23;3.72;;;;;;;16.31;nan;95663.00;5060288;28;20039;-86
2022/07/14 03:17:35;;;;;;;13.43;3.85;;;;;;;16.62;nan;95703.38;5060348;28;20131;-86
2022/07/14 03:20:00;;;;;;;15.20;3.75;;;;;;;15.36;nan;95501.34;5060261;28;20490;-86
2022/07/14 03:22:26;;;;;;;10.25;3.70;;;;;;;16.88;nan;95744.59;5055966;28;20140;-86
2022/07/14 03:24:52;;;;;;;9.05;3.38;;;;;;;16.72;nan;95724.56;5059842;28;20032;-86
2022/07/14 03:27:17;;;;;;;6.30;2.70;;;;;;;16.40;nan;95679.94;5078135;28;20036;-87
2022/07/14 03:29:43;;;;;;;12.18;3.33;;;;;;;16.29;nan;95676.66;5056942;28;20403;-86
2022/07/14 03:32:08;;;;;;;8.85;3.65;;;;;;;16.85;nan;95769.31;5055754;28;20149;-86
2022/07/14 03:34:34;;;;;;;13.85;3.80;;;;;;;16.47;nan;95699.88;5060805;28;20032;-86
2022/07/14 03:36:59;;;;;;;13.50;3.67;;;;;;;16.95;nan;95769.09;5059615;28;20020;-86
2022/07/14 03:39:26;;;;;;;11.60;4.00;;;;;;;16.80;nan;95780.91;5059586;28;20095;-85
2022/07/14 03:41:51;;;;;;;12.98;4.18;;;;;;;16.59;nan;95758.28;5077569;28;20024;-85
2022/07/14 03:44:17;;;;;;;5.93;3.63;;;;;;;16.84;nan;95773.09;5071797;28;20035;-85
2022/07/14 03:46:42;;;;;;;14.30;3.80;;;;;;;15.35;nan;95550.53;5038931;28;20028;-85
2022/07/14 03:49:08;;;;;;;7.47;3.75;;;;;;;16.57;nan;95739.03;5058002;28;20035;-85
2022/07/14 03:51:34;;;;;;;12.05;3.30;;;;;;;14.37;nan;95429.56;5069594;28;20368;-85
2022/07/14 03:53:59;;;;;;;14.52;3.80;;;;;;;15.95;nan;95685.03;5077769;28;20054;-85
2022/07/14 03:56:25;;;;;;;9.40;3.75;;;;;;;15.69;nan;95625.06;5062616;28;20039;-85
2022/07/14 03:58:50;;;;;;;6.45;3.47;;;;;;;14.57;nan;95481.88;5054812;28;20048;-85
2022/07/14 04:01:15;;;;;;;10.68;3.40;;;;;;;14.07;nan;95388.13;5041680;28;20048;-85
2022/07/14 04:03:41;;;;;;;10.48;4.05;;;;;;;16.24;nan;95692.81;5058955;28;20028;-85
2022/07/14 04:06:06;;;;;;;9.70;3.42;;;;;;;13.59;nan;95256.91;5080262;28;20062;-86
2022/07/14 04:08:32;;;;;;;10.55;3.92;;;;;;;15.54;nan;95558.50;5047026;28;20036;-85
2022/07/14 04:10:57;;;;;;;11.88;4.15;;;;;;;16.99;nan;95786.19;5065726;28;20035;-85
2022/07/14 04:13:23;;;;;;;6.70;3.97;;;;;;;16.43;nan;95714.13;5063743;28;20158;-85
2022/07/14 04:15:48;;;;;;;12.00;4.53;;;;;;;15.95;nan;95607.47;5056303;28;20040;-85
2022/07/14 04:18:13;;;;;;;12.88;4.53;;;;;;;16.91;nan;95760.09;5051406;28;20073;-85
2022/07/14 04:20:39;;;;;;;18.40;4.80;;;;;;;16.47;nan;95689.16;5063228;28;20182;-85
2022/07/14 04:23:04;;;;;;;12.25;4.82;;;;;;;17.17;nan;95803.22;5063507;28;20044;-85
2022/07/14 04:25:30;;;;;;;16.35;4.70;;;;;;;17.11;nan;95777.63;5060497;28;20403;-85
2022/07/14 04:27:56;;;;;;;13.65;4.47;;;;;;;17.07;nan;95782.81;5062011;28;20044;-85
2022/07/14 04:30:21;;;;;;;11.93;4.55;;;;;;;16.76;nan;95734.41;5077607;28;20071;-85
2022/07/14 04:32:47;;;;;;;13.30;4.50;;;;;;;16.83;nan;95739.34;5060429;28;20442;-85
2022/07/14 04:35:13;;;;;;;13.88;4.75;;;;;;;17.04;nan;95764.63;5063456;28;20457;-85
2022/07/14 04:37:41;;;;;;;13.35;4.82;;;;;;;16.81;nan;95722.78;5044360;28;20043;-85
2022/07/14 04:40:07;;;;;;;15.65;5.20;;;;;;;16.93;nan;95750.66;5062873;28;20472;-85
2022/07/14 04:42:32;;;;;;;13.82;4.82;;;;;;;16.86;nan;95739.53;5062068;28;20036;-85
2022/07/14 04:44:57;;;;;;;18.20;4.55;;;;;;;17.04;nan;95769.19;5065595;28;20205;-85
2022/07/14 04:47:23;;;;;;;17.23;5.47;;;;;;;17.10;nan;95771.47;5066907;28;20140;-85
2022/07/14 04:52:32;;;;;;;13.60;5.40;;;;;;;17.24;nan;95777.59;5075013;28;20047;-85
2022/07/14 04:54:58;;;;;;;16.95;4.80;;;;;;;17.31;nan;95801.34;5065452;28;20040;-85
2022/07/14 04:57:23;;;;;;;10.98;4.30;;;;;;;16.63;nan;95689.66;5064087;28;20521;-85
2022/07/14 04:59:49;;;;;;;10.23;5.25;;;;;;;16.98;nan;95747.88;5053964;28;20037;-85
2022/07/14 05:02:14;;;;;;;9.05;4.60;;;;;;;16.73;nan;95694.81;5064644;28;20043;-85
2022/07/14 05:04:40;;;;;;;11.73;4.90;;;;;;;17.53;nan;95792.56;5060940;28;20036;-85
2022/07/14 05:07:06;;;;;;;10.25;4.95;;;;;;;15.92;nan;95527.84;5066766;28;20071;-84
2022/07/14 05:09:33;;;;;;;9.65;5.07;;;;;;;17.78;nan;95816.13;5083039;28;20032;-84
2022/07/14 05:12:02;;;;;;;12.13;4.63;;;;;;;17.58;nan;95797.78;5066787;28;20522;-85
2022/07/14 05:14:31;;;;;;;16.77;4.85;;;;;;;17.51;nan;95779.44;5080942;28;20484;-85
2022/07/14 05:16:57;;;;;;;13.77;4.68;;;;;;;16.59;nan;95616.34;5063226;28;20031;-85
2022/07/14 05:19:22;;;;;;;13.75;4.97;;;;;;;17.57;nan;95753.28;5064719;28;20066;-85
2022/07/14 05:21:48;;;;;;;8.73;4.50;;;;;;;17.05;nan;95685.03;5057185;28;20739;-85
2022/07/14 05:24:14;;;;;;;11.00;3.60;;;;;;;17.00;nan;95659.16;5062197;28;20174;-85
2022/07/14 05:26:39;;;;;;;13.05;4.25;;;;;;;17.63;nan;95752.09;5062314;28;20097;-85
2022/07/14 05:29:05;;;;;;;8.50;3.00;;;;;;;17.47;nan;95702.59;5054631;28;20162;-85
2022/07/14 05:31:32;;;;;;;12.27;4.28;;;;;;;17.52;nan;95695.22;5060888;28;20946;-85
2022/07/14 05:33:57;;;;;;;10.13;3.45;;;;;;;17.97;nan;95771.16;5061385;28;20040;-84
2022/07/14 05:36:24;;;;;;;9.70;3.40;;;;;;;18.20;nan;95800.66;5051443;28;20036;-85
2022/07/14 05:38:50;;;;;;;17.77;4.40;;;;;;;18.35;nan;95827.13;5077466;28;20067;-85
2022/07/14 05:41:17;;;;;;;15.27;4.78;;;;;;;17.54;nan;95717.16;5049114;28;20430;-85
2022/07/14 05:43:42;;;;;;;10.80;3.75;;;;;;;17.32;nan;95682.25;5045505;28;20869;-85
2022/07/14 05:46:09;;;;;;;18.63;4.50;;;;;;;18.15;nan;95801.59;5062143;28;20032;-86
2022/07/14 05:48:37;;;;;;;15.43;4.40;;;;;;;18.03;nan;95820.91;5064239;28;20175;-85
2022/07/14 05:51:14;;;;;;;13.45;4.22;;;;;;;18.25;nan;95822.81;5061841;28;20037;-85
2022/07/14 05:53:42;;;;;;;16.50;5.32;;;;;;;17.99;nan;95754.75;5063907;28;20555;-85
2022/07/14 05:56:08;;;;;;;23.83;5.10;;;;;;;18.36;nan;95799.97;5058673;28;20869;-85
2022/07/14 05:58:38;;;;;;;17.55;6.50;;;;;;;18.31;nan;95770.56;5069554;28;20056;-85
2022/07/14 06:01:04;;;;;;;12.30;4.25;;;;;;;17.89;nan;95701.31;5065788;28;20047;-85
2022/07/14 06:03:30;;;;;;;23.65;4.57;;;;;;;18.56;nan;95792.50;5053965;28;20094;-86
2022/07/14 06:05:59;;;;;;;16.75;4.88;;;;;;;17.89;nan;95682.53;5056738;28;20036;-86
2022/07/14 06:08:25;;;;;;;16.63;4.25;;;;;;;16.95;nan;95515.38;5064893;28;20082;-86
2022/07/14 06:10:50;;;;;;;10.27;3.85;;;;;;;16.74;nan;95484.81;5065169;28;20493;-86
2022/07/14 06:13:16;;;;;;;11.38;3.65;;;;;;;18.01;nan;95656.72;5064852;28;20048;-85
2022/07/14 06:15:44;;;;;;;10.55;3.67;;;;;;;18.64;nan;95760.31;5049318;28;20170;-86
2022/07/14 06:18:10;;;;;;;11.10;3.28;;;;;;;17.12;nan;95490.59;5066899;28;20043;-86
2022/07/14 06:20:36;;;;;;;7.65;3.17;;;;;;;18.83;nan;95771.63;5065015;28;20153;-86
2022/07/14 06:23:02;;;;;;;8.60;3.88;;;;;;;18.97;nan;95758.06;5078763;28;20083;-86
2022/07/14 06:25:27;;;;;;;13.95;3.55;;;;;;;18.52;nan;95690.25;5065257;28;20032;-86
2022/07/14 06:27:53;;;;;;;7.85;3.70;;;;;;;17.15;nan;95463.19;5064953;28;20502;-86
2022/07/14 06:30:18;;;;;;;4.78;3.30;;;;;;;16.95;nan;95421.59;5060271;28;20229;-86
2022/07/14 06:32:44;;;;;;;17.83;3.38;;;;;;;18.52;nan;95660.72;5061398;28;20047;-85
2022/07/14 06:35:11;;;;;;;11.48;3.47;;;;;;;17.93;nan;95560.84;5082380;28;20035;-85
2022/07/14 06:37:37;;;;;;;9.38;3.67;;;;;;;19.41;nan;95794.69;5079067;28;20217;-85
2022/07/14 06:40:05;;;;;;;14.23;4.30;;;;;;;18.99;nan;95722.81;5059517;28;20123;-85
2022/07/14 06:42:31;;;;;;;10.20;4.00;;;;;;;18.97;nan;95722.34;5063691;28;20036;-85
2022/07/14 06:44:57;;;;;;;12.70;3.55;;;;;;;18.60;nan;95656.50;5061270;28;20327;-85
2022/07/14 06:47:22;;;;;;;13.10;3.15;;;;;;;19.23;nan;95755.44;5062022;28;20032;-85
2022/07/14 06:49:48;;;;;;;12.10;3.47;;;;;;;19.09;nan;95717.13;5045985;28;20043;-85
2022/07/14 06:52:13;;;;;;;15.07;3.47;;;;;;;18.80;nan;95672.81;5044989;28;20109;-85
2022/07/14 06:54:39;;;;;;;16.13;3.70;;;;;;;18.99;nan;95701.31;5062780;28;20573;-85
2022/07/14 06:57:04;;;;;;;12.45;3.63;;;;;;;19.09;nan;95712.56;5063032;28;20119;-84
2022/07/14 06:59:30;;;;;;;10.40;3.70;;;;;;;18.93;nan;95676.47;5062163;28;20480;-85
2022/07/14 07:01:56;;;;;;;7.55;3.55;;;;;;;19.01;nan;95688.34;5056069;28;20186;-85
2022/07/14 07:04:23;;;;;;;14.57;3.80;;;;;;;18.87;nan;95643.59;5051914;28;20455;-85
2022/07/14 07:06:50;;;;;;;10.75;3.95;;;;;;;19.45;nan;95757.22;5063156;28;20038;-85
2022/07/14 07:09:18;;;;;;;12.65;3.95;;;;;;;18.82;nan;95621.47;5070155;28;20036;-84
2022/07/14 07:11:45;;;;;;;13.45;3.70;;;;;;;19.79;nan;95741.09;5056608;28;20465;-85
2022/07/14 07:14:11;;;;;;;14.95;3.63;;;;;;;19.29;nan;95662.75;5059131;28;20113;-85
2022/07/14 07:16:36;;;;;;;18.67;3.78;;;;;;;19.22;nan;95678.59;5061345;28;20036;-85
2022/07/14 07:19:02;;;;;;;19.20;4.35;;;;;;;19.86;nan;95754.84;5061554;28;20039;-85
2022/07/14 07:21:28;;;;;;;12.25;3.53;;;;;;;18.40;nan;95540.47;5061533;28;20036;-85
2022/07/14 07:23:54;;;;;;;12.02;3.53;;;;;;;18.18;nan;95478.84;5062739;28;20035;-86
2022/07/14 07:26:24;;;;;;;14.65;4.10;;;;;;;19.93;nan;95739.00;5081725;28;20387;-86
2022/07/14 07:28:51;;;;;;;14.35;3.25;;;;;;;20.04;nan;95756.44;5063740;28;20487;-85
2022/07/14 07:31:16;;;;;;;12.35;3.08;;;;;;;19.13;nan;95600.59;5060693;28;20803;-85
2022/07/14 07:33:41;;;;;;;13.13;3.60;;;;;;;19.49;nan;95654.06;5053216;28;20028;-85
2022/07/14 07:36:07;;;;;;;15.77;3.90;;;;;;;19.95;nan;95699.13;5061210;28;20028;-85
2022/07/14 07:38:32;;;;;;;16.20;4.47;;;;;;;19.67;nan;95643.28;5072609;28;20359;-85
2022/07/14 07:41:00;;;;;;;16.50;2.97;;;;;;;20.12;nan;95730.59;5067054;28;20476;-85
2022/07/14 07:43:26;;;;;;;8.55;3.00;;;;;;;19.79;nan;95671.13;5071741;28;20032;-85
2022/07/14 07:45:52;;;;;;;15.25;3.33;;;;;;;20.44;nan;95752.72;5065407;28;20477;-85
2022/07/14 07:48:17;;;;;;;18.05;2.80;;;;;;;19.94;nan;95669.81;5069446;28;20044;-85
2022/07/14 07:50:44;;;;;;;10.90;2.50;;;;;;;18.50;nan;95400.50;5074417;28;20032;-85
2022/07/14 07:53:10;;;;;;;7.97;2.72;;;;;;;20.47;nan;95712.44;5097288;28;20032;-85
2022/07/14 07:55:36;;;;;;;8.07;2.78;;;;;;;20.31;nan;95668.28;5076092;28;20399;-85
2022/07/14 07:58:02;;;;;;;8.25;2.78;;;;;;;20.41;nan;95667.97;5072132;28;20058;-85
2022/07/14 08:00:28;;;;;;;6.43;2.05;;;;;;;20.94;nan;95733.97;5083652;28;20037;-85
2022/07/14 08:02:54;;;;;;;8.00;2.15;;;;;;;21.00;nan;95733.44;5090409;28;20032;-85
2022/07/14 08:05:22;;;;;;;4.40;1.95;;;;;;;21.17;nan;95735.28;5080802;28;20050;-85
2022/07/14 08:07:49;;;;;;;9.52;2.28;;;;;;;20.61;nan;95642.16;5088320;28;20024;-85
2022/07/14 08:10:14;;;;;;;16.98;4.10;;;;;;;20.86;nan;95675.50;5102688;28;20028;-85
2022/07/14 08:12:41;;;;;;;9.43;3.28;;;;;;;20.73;nan;95644.97;5085128;28;20087;-85
2022/07/14 08:15:07;;;;;;;14.30;3.30;;;;;;;20.68;nan;95599.31;5101539;28;20043;-85
2022/07/14 08:17:33;;;;;;;15.52;3.30;;;;;;;20.97;nan;95633.56;5095084;28;20081;-85
2022/07/14 08:19:59;;;;;;;11.48;3.03;;;;;;;21.31;nan;95695.34;5083453;28;20036;-85
2022/07/14 08:22:25;;;;;;;11.32;2.58;;;;;;;20.82;nan;95599.09;5072996;28;20036;-86
2022/07/14 08:24:53;;;;;;;9.55;2.92;;;;;;;21.07;nan;95631.25;5072387;28;20097;-85
2022/07/14 08:27:18;;;;;;;13.52;2.42;;;;;;;21.50;nan;95689.50;5073192;28;20032;-85
2022/07/14 08:29:43;;;;;;;15.55;2.95;;;;;;;21.78;nan;95714.81;5072636;28;20085;-86
2022/07/14 08:32:09;;;;;;;8.05;2.33;;;;;;;21.76;nan;95719.75;5069620;28;20028;-84
2022/07/14 08:34:34;;;;;;;14.38;2.92;;;;;;;21.29;nan;95630.16;5081713;28;20109;-84
2022/07/14 08:37:00;;;;;;;10.20;2.83;;;;;;;21.34;nan;95642.66;5068616;28;20048;-84
2022/07/14 08:39:26;;;;;;;7.38;2.10;;;;;;;21.32;nan;95621.41;5069649;28;20475;-84
2022/07/14 08:41:54;;;;;;;4.10;2.03;;;;;;;21.84;nan;95707.31;5069724;28;20161;-84
2022/07/14 08:44:20;;;;;;;12.52;2.17;;;;;;;21.15;nan;95597.25;5055595;28;20079;-85
2022/07/14 08:46:47;;;;;;;8.63;2.20;;;;;;;21.43;nan;95627.19;5054479;28;20025;-84
2022/07/14 08:49:14;;;;;;;3.88;1.90;;;;;;;21.93;nan;95683.72;5078594;28;20089;-84
2022/07/14 08:51:42;;;;;;;4.95;2.10;;;;;;;22.13;nan;95691.00;5056199;28;20092;-84
2022/07/14 08:54:09;;;;;;;4.03;1.90;;;;;;;21.84;nan;95647.91;5080334;28;20043;-84
2022/07/14 08:56:38;;;;;;;5.32;1.90;;;;;;;21.56;nan;95601.81;5083968;28;20028;-84
2022/07/14 08:59:04;;;;;;;8.05;1.60;;;;;;;22.07;nan;95680.72;5061807;28;20060;-84
2022/07/14 09:01:30;;;;;;;8.15;2.15;;;;;;;20.95;nan;95492.91;5071205;28;20028;-84
2022/07/14 09:03:56;;;;;;;6.13;2.45;;;;;;;21.59;nan;95574.16;5074798;28;20048;-85
2022/07/14 09:06:47;;;;;;;6.38;2.50;;;;;;;22.41;nan;95693.88;5058958;28;20063;-85
2022/07/14 09:09:18;;;;;;;5.45;1.70;;;;;;;21.06;nan;95481.34;5060790;28;20039;-85
2022/07/14 09:12:07;;;;;;;5.80;1.63;;;;;;;22.37;nan;95681.34;5061399;28;20480;-84
2022/07/14 09:17:25;;;;;;;5.72;1.40;;;;;;;22.28;nan;95649.81;5075955;28;20639;-85
2022/07/14 09:20:07;;;;;;;7.40;1.73;;;;;;;21.63;nan;95531.91;5064767;28;20090;-84
2022/07/14 09:22:36;;;;;;;7.72;2.00;;;;;;;22.65;nan;95668.78;5061041;28;20036;-84
2022/07/14 09:25:04;;;;;;;8.05;2.42;;;;;;;22.12;nan;95589.50;5081367;28;20533;-85
2022/07/14 09:27:30;;;;;;;4.45;1.27;;;;;;;22.24;nan;95599.50;5071473;28;20411;-84
2022/07/14 09:29:56;;;;;;;4.75;1.77;;;;;;;22.52;nan;95630.13;5073534;28;20048;-85
2022/07/14 09:32:44;;;;;;;5.85;1.60;;;;;;;22.82;nan;95665.84;5064284;28;20038;-84
2022/07/14 09:35:11;;;;;;;9.13;1.70;;;;;;;22.88;nan;95661.03;5072162;28;20150;-84
2022/07/14 09:37:39;;;;;;;6.68;1.60;;;;;;;22.69;nan;95613.69;5059400;28;20066;-85
2022/07/14 09:40:06;;;;;;;4.25;1.77;;;;;;;22.61;nan;95600.28;5063783;28;20043;-84
2022/07/14 09:42:58;;;;;;;9.55;2.08;;;;;;;22.94;nan;95660.44;5056258;28;20069;-85
2022/07/14 09:45:27;;;;;;;;;;;;;;;23.04;nan;95656.47;5069578;28;20035;-85
2022/07/14 09:47:59;;;;;;;9.20;1.73;;;;;;;22.48;nan;95567.06;5057692;28;19920;-85
2022/07/14 09:50:35;;;;;;;4.45;1.42;;;;;;;22.39;nan;95484.56;5060487;28;20040;-85
2022/07/14 09:53:16;;;;;;;3.70;1.20;;;;;;;23.97;nan;95581.34;5073198;28;20037;-85
2022/07/14 09:55:51;;;;;;;3.93;1.30;;;;;;;25.23;nan;95601.75;5068370;28;20098;-85
2022/07/14 09:58:18;;;;;;;5.97;1.73;;;;;;;26.17;nan;95600.41;5065563;28;20059;-85
2022/07/14 10:00:56;;;;;;;2.47;1.15;;;;;;;27.16;nan;95590.28;5065195;28;20089;-85
2022/07/14 10:03:23;;;;;;;3.42;1.60;;;;;;;28.15;nan;95615.97;5081246;28;20028;-86
2022/07/14 10:05:50;;;;;;;13.73;2.20;;;;;;;27.14;nan;95369.38;5084934;28;20055;-85
2022/07/14 10:08:19;;;;;;;3.47;1.60;;;;;;;28.87;nan;95530.78;5065400;28;20052;-85
2022/07/14 10:10:44;;;;;;;7.10;1.30;;;;;;;30.28;nan;95603.50;5067383;28;20091;-85
2022/07/14 10:13:11;;;;;;;8.48;1.23;;;;;;;30.91;nan;95583.53;5062320;28;20068;-85
2022/07/14 10:15:38;;;;;;;7.93;1.25;;;;;;;30.09;nan;95387.81;5060919;28;20032;-85
2022/07/14 10:18:03;;;;;;;3.28;1.20;;;;;;;32.01;nan;95596.88;5063048;28;20078;-85
2022/07/14 10:20:29;;;;;;;4.35;1.45;;;;;;;31.59;nan;95517.53;5063243;28;20051;-85
2022/07/14 10:22:56;;;;;;;7.55;2.03;;;;;;;32.57;nan;95572.97;5054970;28;20040;-85
2022/07/14 10:25:21;;;;;;;2.20;1.40;;;;;;;32.42;nan;95478.97;5063179;28;20801;-85
2022/07/14 10:27:48;;;;;;;14.85;1.40;;;;;;;33.27;nan;95612.72;5068780;28;20051;-85
2022/07/14 10:30:15;;;;;;;4.15;1.63;;;;;;;32.72;nan;95464.56;5078580;28;20043;-85
2022/07/14 10:33:00;;;;;;;5.35;1.70;;;;;;;33.68;nan;95557.63;5062439;28;20037;-85
2022/07/14 10:35:37;;;;;;;3.58;1.38;;;;;;;33.77;nan;95553.63;5079707;28;20046;-85
2022/07/14 10:38:14;;;;;;;6.13;1.30;;;;;;;34.15;nan;95604.56;5049681;28;20024;-85
2022/07/14 10:41:02;;;;;;;8.80;1.33;;;;;;;34.26;nan;95599.69;5053705;28;20673;-85
2022/07/14 10:43:42;;;;;;;7.63;1.30;;;;;;;33.95;nan;95604.44;5058933;28;20040;-85
2022/07/14 10:46:10;;;;;;;6.05;1.33;;;;;;;34.07;nan;95583.84;5060334;28;20028;-85
2022/07/14 10:48:37;;;;;;;7.55;1.52;;;;;;;34.17;nan;95565.63;5058202;28;20033;-85
2022/07/14 10:51:15;;;;;;;6.65;1.52;;;;;;;34.28;nan;95594.56;5045355;28;20110;-86
2022/07/14 10:54:01;;;;;;;5.82;1.20;;;;;;;33.38;nan;95502.66;5043161;28;20117;-85
2022/07/14 10:56:28;;;;;;;6.43;1.63;;;;;;;34.16;nan;95584.09;5059980;28;20235;-85
2022/07/14 10:59:32;;;;;;;7.18;1.13;;;;;;;34.41;nan;95590.00;5062541;28;20137;-85
2022/07/14 11:02:13;;;;;;;3.10;1.38;;;;;;;33.65;nan;95585.16;5059434;28;20055;-85
2022/07/14 11:04:57;;;;;;;7.63;1.20;;;;;;;33.80;nan;95578.31;5063070;28;20055;-85
2022/07/14 11:07:43;;;;;;;7.88;2.17;;;;;;;33.44;nan;95514.75;5074146;28;20098;-85
2022/07/14 11:10:14;;;;;;;6.10;1.92;;;;;;;33.94;nan;95577.34;5047303;28;20043;-86
2022/07/14 11:13:05;;;;;;;5.97;1.98;;;;;;;33.97;nan;95568.25;5051899;28;20048;-85
2022/07/14 11:15:43;;;;;;;4.32;1.17;;;;;;;33.37;nan;95538.78;5058364;28;20040;-86
2022/07/14 11:18:18;;;;;;;7.72;2.65;;;;;;;34.04;nan;95563.44;5062197;28;20063;-86
2022/07/14 11:21:07;;;;;;;5.20;1.60;;;;;;;34.12;nan;95561.34;5061407;28;20838;-87
2022/07/14 11:23:51;;;;;;;4.18;1.20;;;;;;;34.21;nan;95560.81;5060934;28;20761;-87
2022/07/14 11:26:32;;;;;;;6.13;1.60;;;;;;;34.48;nan;95561.59;5053186;28;20039;-87
2022/07/14 11:28:58;;;;;;;4.80;1.25;;;;;;;33.97;nan;95519.50;5079147;28;20085;-85
2022/07/14 11:31:24;;;;;;;6.07;1.98;;;;;;;34.02;nan;95477.00;5061314;28;20139;-86
2022/07/14 11:36:35;;;;;;;6.63;1.77;;;;;;;34.33;nan;95538.25;5072482;28;20067;-86
2022/07/14 11:39:16;;;;;;;9.98;2.60;;;;;;;34.56;nan;95559.50;5051553;28;20627;-86
2022/07/14 11:41:47;;;;;;;5.10;1.90;;;;;;;34.20;nan;95512.47;5053383;28;20059;-85
2022/07/14 11:44:38;;;;;;;12.90;1.95;;;;;;;34.55;nan;95546.94;5068005;28;20052;-86
2022/07/14 11:47:24;;;;;;;5.82;2.05;;;;;;;34.88;nan;95548.72;5062012;28;20123;-85
2022/07/14 11:50:10;;;;;;;9.30;1.33;;;;;;;33.75;nan;95434.97;5073714;28;20174;-85
2022/07/14 11:52:38;;;;;;;6.00;1.35;;;;;;;33.88;nan;95516.50;5059951;28;20327;-86
2022/07/14 11:55:07;;;;;;;7.63;1.75;;;;;;;34.11;nan;95546.03;5062570;28;20086;-86
2022/07/14 11:57:32;;;;;;;5.85;1.95;;;;;;;33.49;nan;95431.03;5044457;28;20059;-86
2022/07/14 12:00:09;;;;;;;2.15;1.10;;;;;;;34.08;nan;95489.09;5076085;28;20072;-86